sensor_id;sensor_type;location;lat;lon;timestamp;P1;durP1;ratioP1;P2;durP2;ratioP2
62572;SDS011;48626;51.678;5.806;2023-03-01T00:02:00;12.63;;;7.10;;
62572;SDS011;48626;51.678;5.806;2023-03-01T00:04:26;14.15;;;7.00;;
62572;SDS011;48626;51.678;5.806;2023-03-01T00:06:52;13.23;;;7.13;;
62572;SDS011;48626;51.678;5.806;2023-03-01T00:09:18;11.73;;;6.88;;
62572;SDS011;48626;51.678;5.806;2023-03-01T00:11:44;10.80;;;6.68;;
62572;SDS011;48626;51.678;5.806;2023-03-01T00:14:10;12.27;;;6.82;;
62572;SDS011;48626;51.678;5.806;2023-03-01T00:16:37;9.88;;;6.20;;
62572;SDS011;48626;51.678;5.806;2023-03-01T00:19:05;11.02;;;6.50;;
62572;SDS011;48626;51.678;5.806;2023-03-01T00:21:36;11.20;;;6.63;;
62572;SDS011;48626;51.678;5.806;2023-03-01T00:24:02;10.35;;;6.38;;
62572;SDS011;48626;51.678;5.806;2023-03-01T00:26:28;10.07;;;6.28;;
62572;SDS011;48626;51.678;5.806;2023-03-01T00:28:54;10.93;;;6.70;;
62572;SDS011;48626;51.678;5.806;2023-03-01T00:31:22;12.50;;;6.57;;
62572;SDS011;48626;51.678;5.806;2023-03-01T00:33:52;11.35;;;6.97;;
62572;SDS011;48626;51.678;5.806;2023-03-01T00:36:21;11.05;;;6.78;;
62572;SDS011;48626;51.678;5.806;2023-03-01T00:38:48;10.48;;;6.88;;
62572;SDS011;48626;51.678;5.806;2023-03-01T00:41:15;10.52;;;6.72;;
62572;SDS011;48626;51.678;5.806;2023-03-01T00:43:43;10.70;;;6.93;;
62572;SDS011;48626;51.678;5.806;2023-03-01T00:46:13;10.02;;;6.40;;
62572;SDS011;48626;51.678;5.806;2023-03-01T00:48:40;11.20;;;6.82;;
62572;SDS011;48626;51.678;5.806;2023-03-01T00:53:42;9.80;;;6.20;;
62572;SDS011;48626;51.678;5.806;2023-03-01T00:56:09;12.43;;;6.53;;
62572;SDS011;48626;51.678;5.806;2023-03-01T00:58:36;9.23;;;6.30;;
62572;SDS011;48626;51.678;5.806;2023-03-01T01:01:12;10.88;;;6.97;;
62572;SDS011;48626;51.678;5.806;2023-03-01T01:03:49;10.95;;;6.47;;
62572;SDS011;48626;51.678;5.806;2023-03-01T01:06:18;10.80;;;6.43;;
62572;SDS011;48626;51.678;5.806;2023-03-01T01:08:49;9.93;;;6.28;;
62572;SDS011;48626;51.678;5.806;2023-03-01T01:11:16;10.45;;;6.30;;
62572;SDS011;48626;51.678;5.806;2023-03-01T01:13:43;11.18;;;6.78;;
62572;SDS011;48626;51.678;5.806;2023-03-01T01:16:09;11.48;;;7.15;;
62572;SDS011;48626;51.678;5.806;2023-03-01T01:18:35;12.20;;;6.93;;
62572;SDS011;48626;51.678;5.806;2023-03-01T01:21:09;10.90;;;6.50;;
62572;SDS011;48626;51.678;5.806;2023-03-01T01:23:36;11.57;;;6.95;;
62572;SDS011;48626;51.678;5.806;2023-03-01T01:26:03;9.88;;;6.72;;
62572;SDS011;48626;51.678;5.806;2023-03-01T01:28:31;9.73;;;6.47;;
62572;SDS011;48626;51.678;5.806;2023-03-01T01:30:57;12.77;;;7.05;;
62572;SDS011;48626;51.678;5.806;2023-03-01T01:33:22;11.88;;;7.35;;
62572;SDS011;48626;51.678;5.806;2023-03-01T01:35:48;10.10;;;6.20;;
62572;SDS011;48626;51.678;5.806;2023-03-01T01:38:13;16.45;;;7.43;;
62572;SDS011;48626;51.678;5.806;2023-03-01T01:40:43;9.60;;;6.65;;
62572;SDS011;48626;51.678;5.806;2023-03-01T01:43:23;12.52;;;7.72;;
62572;SDS011;48626;51.678;5.806;2023-03-01T01:45:52;13.93;;;7.93;;
62572;SDS011;48626;51.678;5.806;2023-03-01T01:48:37;12.88;;;7.10;;
62572;SDS011;48626;51.678;5.806;2023-03-01T01:51:07;13.35;;;7.35;;
62572;SDS011;48626;51.678;5.806;2023-03-01T01:53:37;11.40;;;7.43;;
62572;SDS011;48626;51.678;5.806;2023-03-01T01:56:04;11.45;;;7.20;;
62572;SDS011;48626;51.678;5.806;2023-03-01T01:58:33;11.45;;;7.22;;
62572;SDS011;48626;51.678;5.806;2023-03-01T02:01:00;11.88;;;7.10;;
62572;SDS011;48626;51.678;5.806;2023-03-01T02:03:29;13.70;;;7.15;;
62572;SDS011;48626;51.678;5.806;2023-03-01T02:06:05;13.75;;;7.45;;
62572;SDS011;48626;51.678;5.806;2023-03-01T02:08:36;13.48;;;7.65;;
62572;SDS011;48626;51.678;5.806;2023-03-01T02:11:05;15.77;;;7.93;;
62572;SDS011;48626;51.678;5.806;2023-03-01T02:13:31;13.07;;;7.90;;
62572;SDS011;48626;51.678;5.806;2023-03-01T02:18:29;14.02;;;7.90;;
62572;SDS011;48626;51.678;5.806;2023-03-01T02:23:48;10.82;;;7.15;;
62572;SDS011;48626;51.678;5.806;2023-03-01T02:26:18;14.10;;;7.35;;
62572;SDS011;48626;51.678;5.806;2023-03-01T02:28:50;11.85;;;7.50;;
62572;SDS011;48626;51.678;5.806;2023-03-01T02:31:17;13.00;;;7.80;;
62572;SDS011;48626;51.678;5.806;2023-03-01T02:34:02;11.77;;;7.40;;
62572;SDS011;48626;51.678;5.806;2023-03-01T02:36:35;12.20;;;7.63;;
62572;SDS011;48626;51.678;5.806;2023-03-01T02:39:03;11.75;;;7.80;;
62572;SDS011;48626;51.678;5.806;2023-03-01T02:41:34;16.92;;;7.97;;
62572;SDS011;48626;51.678;5.806;2023-03-01T02:44:02;12.82;;;7.93;;
62572;SDS011;48626;51.678;5.806;2023-03-01T02:46:28;16.17;;;8.38;;
62572;SDS011;48626;51.678;5.806;2023-03-01T02:48:58;10.30;;;7.40;;
62572;SDS011;48626;51.678;5.806;2023-03-01T02:57:10;13.23;;;7.70;;
62572;SDS011;48626;51.678;5.806;2023-03-01T02:59:37;14.70;;;8.00;;
62572;SDS011;48626;51.678;5.806;2023-03-01T03:02:24;12.27;;;7.75;;
62572;SDS011;48626;51.678;5.806;2023-03-01T03:05:04;12.75;;;8.10;;
62572;SDS011;48626;51.678;5.806;2023-03-01T03:07:33;11.80;;;7.40;;
62572;SDS011;48626;51.678;5.806;2023-03-01T03:10:04;13.27;;;7.85;;
62572;SDS011;48626;51.678;5.806;2023-03-01T03:12:31;11.70;;;7.50;;
62572;SDS011;48626;51.678;5.806;2023-03-01T03:14:57;14.18;;;8.60;;
62572;SDS011;48626;51.678;5.806;2023-03-01T03:17:22;13.05;;;8.43;;
62572;SDS011;48626;51.678;5.806;2023-03-01T03:19:48;13.10;;;7.78;;
62572;SDS011;48626;51.678;5.806;2023-03-01T03:22:14;12.10;;;7.68;;
62572;SDS011;48626;51.678;5.806;2023-03-01T03:24:40;13.05;;;7.43;;
62572;SDS011;48626;51.678;5.806;2023-03-01T03:27:06;13.75;;;7.72;;
62572;SDS011;48626;51.678;5.806;2023-03-01T03:29:32;14.55;;;7.43;;
62572;SDS011;48626;51.678;5.806;2023-03-01T03:31:58;12.73;;;8.05;;
62572;SDS011;48626;51.678;5.806;2023-03-01T03:34:24;10.65;;;7.07;;
62572;SDS011;48626;51.678;5.806;2023-03-01T03:36:53;12.00;;;7.65;;
62572;SDS011;48626;51.678;5.806;2023-03-01T03:39:24;11.73;;;7.15;;
62572;SDS011;48626;51.678;5.806;2023-03-01T03:41:51;16.23;;;8.15;;
62572;SDS011;48626;51.678;5.806;2023-03-01T03:44:17;14.20;;;8.02;;
62572;SDS011;48626;51.678;5.806;2023-03-01T03:46:43;14.52;;;7.82;;
62572;SDS011;48626;51.678;5.806;2023-03-01T03:49:09;14.90;;;7.82;;
62572;SDS011;48626;51.678;5.806;2023-03-01T03:51:35;14.68;;;8.10;;
62572;SDS011;48626;51.678;5.806;2023-03-01T03:54:00;15.48;;;8.02;;
62572;SDS011;48626;51.678;5.806;2023-03-01T03:56:26;12.45;;;7.78;;
62572;SDS011;48626;51.678;5.806;2023-03-01T03:58:52;15.48;;;8.50;;
62572;SDS011;48626;51.678;5.806;2023-03-01T04:01:18;12.52;;;7.80;;
62572;SDS011;48626;51.678;5.806;2023-03-01T04:03:43;15.52;;;8.15;;
62572;SDS011;48626;51.678;5.806;2023-03-01T04:06:12;18.80;;;8.38;;
62572;SDS011;48626;51.678;5.806;2023-03-01T04:08:38;13.68;;;8.57;;
62572;SDS011;48626;51.678;5.806;2023-03-01T04:11:05;15.77;;;9.65;;
62572;SDS011;48626;51.678;5.806;2023-03-01T04:13:50;14.60;;;8.43;;
62572;SDS011;48626;51.678;5.806;2023-03-01T04:16:17;15.38;;;8.82;;
62572;SDS011;48626;51.678;5.806;2023-03-01T04:18:44;15.18;;;8.93;;
62572;SDS011;48626;51.678;5.806;2023-03-01T04:21:10;12.57;;;8.00;;
62572;SDS011;48626;51.678;5.806;2023-03-01T04:23:36;16.17;;;9.07;;
62572;SDS011;48626;51.678;5.806;2023-03-01T04:26:02;18.23;;;8.95;;
62572;SDS011;48626;51.678;5.806;2023-03-01T04:28:33;13.73;;;8.63;;
62572;SDS011;48626;51.678;5.806;2023-03-01T04:31:11;14.80;;;8.55;;
62572;SDS011;48626;51.678;5.806;2023-03-01T04:33:39;13.98;;;8.35;;
62572;SDS011;48626;51.678;5.806;2023-03-01T04:36:06;13.13;;;8.27;;
62572;SDS011;48626;51.678;5.806;2023-03-01T04:38:33;12.32;;;7.88;;
62572;SDS011;48626;51.678;5.806;2023-03-01T04:41:02;14.35;;;8.55;;
62572;SDS011;48626;51.678;5.806;2023-03-01T04:43:28;12.70;;;7.88;;
62572;SDS011;48626;51.678;5.806;2023-03-01T04:45:54;15.15;;;9.60;;
62572;SDS011;48626;51.678;5.806;2023-03-01T04:48:24;15.48;;;9.02;;
62572;SDS011;48626;51.678;5.806;2023-03-01T04:50:50;15.75;;;8.55;;
62572;SDS011;48626;51.678;5.806;2023-03-01T04:53:15;18.02;;;9.10;;
62572;SDS011;48626;51.678;5.806;2023-03-01T04:55:43;15.13;;;8.93;;
62572;SDS011;48626;51.678;5.806;2023-03-01T04:58:09;17.52;;;9.13;;
62572;SDS011;48626;51.678;5.806;2023-03-01T05:00:34;19.60;;;8.77;;
62572;SDS011;48626;51.678;5.806;2023-03-01T05:03:00;15.82;;;8.95;;
62572;SDS011;48626;51.678;5.806;2023-03-01T05:05:27;13.63;;;8.20;;
62572;SDS011;48626;51.678;5.806;2023-03-01T05:07:56;11.88;;;8.02;;
62572;SDS011;48626;51.678;5.806;2023-03-01T05:10:23;14.80;;;8.80;;
62572;SDS011;48626;51.678;5.806;2023-03-01T05:12:50;20.50;;;9.32;;
62572;SDS011;48626;51.678;5.806;2023-03-01T05:15:17;14.70;;;9.18;;
62572;SDS011;48626;51.678;5.806;2023-03-01T05:17:43;14.77;;;8.38;;
62572;SDS011;48626;51.678;5.806;2023-03-01T05:20:09;14.40;;;8.70;;
62572;SDS011;48626;51.678;5.806;2023-03-01T05:22:36;15.40;;;8.40;;
62572;SDS011;48626;51.678;5.806;2023-03-01T05:25:02;14.05;;;7.63;;
62572;SDS011;48626;51.678;5.806;2023-03-01T05:27:28;13.38;;;8.13;;
62572;SDS011;48626;51.678;5.806;2023-03-01T05:29:54;18.42;;;8.50;;
62572;SDS011;48626;51.678;5.806;2023-03-01T05:32:20;14.20;;;7.80;;
62572;SDS011;48626;51.678;5.806;2023-03-01T05:34:46;12.63;;;7.43;;
62572;SDS011;48626;51.678;5.806;2023-03-01T05:37:12;15.93;;;8.30;;
62572;SDS011;48626;51.678;5.806;2023-03-01T05:39:38;16.25;;;8.68;;
62572;SDS011;48626;51.678;5.806;2023-03-01T05:42:04;14.57;;;8.38;;
62572;SDS011;48626;51.678;5.806;2023-03-01T05:44:30;16.80;;;8.40;;
62572;SDS011;48626;51.678;5.806;2023-03-01T05:46:56;14.15;;;8.10;;
62572;SDS011;48626;51.678;5.806;2023-03-01T05:49:22;18.33;;;8.73;;
62572;SDS011;48626;51.678;5.806;2023-03-01T05:51:51;17.15;;;8.02;;
62572;SDS011;48626;51.678;5.806;2023-03-01T05:54:18;19.92;;;9.40;;
62572;SDS011;48626;51.678;5.806;2023-03-01T05:56:45;12.73;;;7.93;;
62572;SDS011;48626;51.678;5.806;2023-03-01T05:59:11;16.00;;;8.52;;
62572;SDS011;48626;51.678;5.806;2023-03-01T06:01:38;13.77;;;8.60;;
62572;SDS011;48626;51.678;5.806;2023-03-01T06:04:04;17.42;;;9.85;;
62572;SDS011;48626;51.678;5.806;2023-03-01T06:06:34;20.95;;;12.00;;
62572;SDS011;48626;51.678;5.806;2023-03-01T06:09:02;19.23;;;11.93;;
62572;SDS011;48626;51.678;5.806;2023-03-01T06:11:28;22.33;;;12.90;;
62572;SDS011;48626;51.678;5.806;2023-03-01T06:13:54;25.17;;;13.48;;
62572;SDS011;48626;51.678;5.806;2023-03-01T06:16:20;26.08;;;13.90;;
62572;SDS011;48626;51.678;5.806;2023-03-01T06:18:45;19.98;;;11.43;;
62572;SDS011;48626;51.678;5.806;2023-03-01T06:21:11;20.85;;;11.02;;
62572;SDS011;48626;51.678;5.806;2023-03-01T06:23:36;16.75;;;10.35;;
62572;SDS011;48626;51.678;5.806;2023-03-01T06:26:06;22.20;;;11.20;;
62572;SDS011;48626;51.678;5.806;2023-03-01T06:28:33;23.02;;;11.50;;
62572;SDS011;48626;51.678;5.806;2023-03-01T06:30:59;25.45;;;11.73;;
62572;SDS011;48626;51.678;5.806;2023-03-01T06:33:25;24.17;;;11.60;;
62572;SDS011;48626;51.678;5.806;2023-03-01T06:35:51;19.52;;;10.45;;
62572;SDS011;48626;51.678;5.806;2023-03-01T06:38:19;22.60;;;11.10;;
62572;SDS011;48626;51.678;5.806;2023-03-01T06:40:45;21.17;;;11.05;;
62572;SDS011;48626;51.678;5.806;2023-03-01T06:43:17;17.45;;;9.50;;
62572;SDS011;48626;51.678;5.806;2023-03-01T06:45:43;16.40;;;9.73;;
62572;SDS011;48626;51.678;5.806;2023-03-01T06:48:08;16.50;;;9.15;;
62572;SDS011;48626;51.678;5.806;2023-03-01T06:50:34;19.33;;;10.25;;
62572;SDS011;48626;51.678;5.806;2023-03-01T06:53:00;17.42;;;9.90;;
62572;SDS011;48626;51.678;5.806;2023-03-01T06:55:27;16.38;;;9.65;;
62572;SDS011;48626;51.678;5.806;2023-03-01T06:57:59;14.50;;;9.18;;
62572;SDS011;48626;51.678;5.806;2023-03-01T07:00:26;16.13;;;10.02;;
62572;SDS011;48626;51.678;5.806;2023-03-01T07:02:52;18.13;;;9.57;;
62572;SDS011;48626;51.678;5.806;2023-03-01T07:05:18;18.02;;;10.48;;
62572;SDS011;48626;51.678;5.806;2023-03-01T07:07:44;20.48;;;10.43;;
62572;SDS011;48626;51.678;5.806;2023-03-01T07:10:10;17.30;;;9.68;;
62572;SDS011;48626;51.678;5.806;2023-03-01T07:12:36;17.52;;;9.63;;
62572;SDS011;48626;51.678;5.806;2023-03-01T07:15:02;16.30;;;9.55;;
62572;SDS011;48626;51.678;5.806;2023-03-01T07:17:28;18.70;;;9.45;;
62572;SDS011;48626;51.678;5.806;2023-03-01T07:19:54;15.95;;;9.68;;
62572;SDS011;48626;51.678;5.806;2023-03-01T07:22:20;18.30;;;9.82;;
62572;SDS011;48626;51.678;5.806;2023-03-01T07:24:45;16.95;;;9.70;;
62572;SDS011;48626;51.678;5.806;2023-03-01T07:27:11;18.75;;;9.52;;
62572;SDS011;48626;51.678;5.806;2023-03-01T07:29:36;22.35;;;10.02;;
62572;SDS011;48626;51.678;5.806;2023-03-01T07:32:03;14.77;;;9.23;;
62572;SDS011;48626;51.678;5.806;2023-03-01T07:34:29;20.70;;;9.27;;
62572;SDS011;48626;51.678;5.806;2023-03-01T07:36:55;20.73;;;9.55;;
62572;SDS011;48626;51.678;5.806;2023-03-01T07:39:21;18.33;;;9.40;;
62572;SDS011;48626;51.678;5.806;2023-03-01T07:41:48;20.83;;;9.45;;
62572;SDS011;48626;51.678;5.806;2023-03-01T07:44:14;14.20;;;9.35;;
62572;SDS011;48626;51.678;5.806;2023-03-01T07:46:40;18.35;;;9.45;;
62572;SDS011;48626;51.678;5.806;2023-03-01T07:49:06;15.88;;;9.32;;
62572;SDS011;48626;51.678;5.806;2023-03-01T07:51:32;15.80;;;9.82;;
62572;SDS011;48626;51.678;5.806;2023-03-01T07:53:57;18.00;;;10.30;;
62572;SDS011;48626;51.678;5.806;2023-03-01T07:56:23;18.15;;;9.68;;
62572;SDS011;48626;51.678;5.806;2023-03-01T07:58:49;18.30;;;10.38;;
62572;SDS011;48626;51.678;5.806;2023-03-01T08:01:15;16.05;;;9.75;;
62572;SDS011;48626;51.678;5.806;2023-03-01T08:03:43;19.10;;;10.25;;
62572;SDS011;48626;51.678;5.806;2023-03-01T08:06:10;19.08;;;10.40;;
62572;SDS011;48626;51.678;5.806;2023-03-01T08:08:36;15.48;;;9.85;;
62572;SDS011;48626;51.678;5.806;2023-03-01T08:11:03;20.25;;;9.55;;
62572;SDS011;48626;51.678;5.806;2023-03-01T08:13:30;22.77;;;9.77;;
62572;SDS011;48626;51.678;5.806;2023-03-01T08:16:00;15.63;;;9.95;;
62572;SDS011;48626;51.678;5.806;2023-03-01T08:18:27;20.90;;;10.10;;
62572;SDS011;48626;51.678;5.806;2023-03-01T08:20:52;20.73;;;11.15;;
62572;SDS011;48626;51.678;5.806;2023-03-01T08:23:18;19.67;;;10.65;;
62572;SDS011;48626;51.678;5.806;2023-03-01T08:25:44;19.73;;;9.27;;
62572;SDS011;48626;51.678;5.806;2023-03-01T08:28:09;19.92;;;10.77;;
62572;SDS011;48626;51.678;5.806;2023-03-01T08:30:35;25.85;;;11.13;;
62572;SDS011;48626;51.678;5.806;2023-03-01T08:33:00;17.30;;;10.20;;
62572;SDS011;48626;51.678;5.806;2023-03-01T08:35:26;19.75;;;10.88;;
62572;SDS011;48626;51.678;5.806;2023-03-01T08:37:52;20.05;;;10.63;;
62572;SDS011;48626;51.678;5.806;2023-03-01T08:40:17;19.27;;;10.38;;
62572;SDS011;48626;51.678;5.806;2023-03-01T08:42:43;16.17;;;10.32;;
62572;SDS011;48626;51.678;5.806;2023-03-01T08:45:09;16.48;;;9.48;;
62572;SDS011;48626;51.678;5.806;2023-03-01T08:47:35;21.08;;;11.25;;
62572;SDS011;48626;51.678;5.806;2023-03-01T08:50:01;18.98;;;10.63;;
62572;SDS011;48626;51.678;5.806;2023-03-01T08:52:28;18.40;;;9.80;;
62572;SDS011;48626;51.678;5.806;2023-03-01T08:54:55;19.33;;;10.27;;
62572;SDS011;48626;51.678;5.806;2023-03-01T08:57:21;15.02;;;10.00;;
62572;SDS011;48626;51.678;5.806;2023-03-01T08:59:47;17.38;;;9.90;;
62572;SDS011;48626;51.678;5.806;2023-03-01T09:02:14;16.92;;;9.45;;
62572;SDS011;48626;51.678;5.806;2023-03-01T09:04:41;14.68;;;9.93;;
62572;SDS011;48626;51.678;5.806;2023-03-01T09:07:07;14.85;;;9.13;;
62572;SDS011;48626;51.678;5.806;2023-03-01T09:09:34;15.15;;;8.80;;
62572;SDS011;48626;51.678;5.806;2023-03-01T09:11:59;18.23;;;8.88;;
62572;SDS011;48626;51.678;5.806;2023-03-01T09:14:25;14.68;;;8.90;;
62572;SDS011;48626;51.678;5.806;2023-03-01T09:16:51;18.40;;;9.57;;
62572;SDS011;48626;51.678;5.806;2023-03-01T09:19:17;15.57;;;9.27;;
62572;SDS011;48626;51.678;5.806;2023-03-01T09:21:42;16.00;;;8.93;;
62572;SDS011;48626;51.678;5.806;2023-03-01T09:24:18;18.92;;;8.50;;
62572;SDS011;48626;51.678;5.806;2023-03-01T09:26:45;13.70;;;8.00;;
62572;SDS011;48626;51.678;5.806;2023-03-01T09:29:12;16.73;;;7.82;;
62572;SDS011;48626;51.678;5.806;2023-03-01T09:31:39;14.73;;;8.82;;
62572;SDS011;48626;51.678;5.806;2023-03-01T09:34:05;11.10;;;7.68;;
62572;SDS011;48626;51.678;5.806;2023-03-01T09:36:31;14.50;;;8.15;;
62572;SDS011;48626;51.678;5.806;2023-03-01T09:38:58;13.75;;;7.80;;
62572;SDS011;48626;51.678;5.806;2023-03-01T09:43:54;14.55;;;7.85;;
62572;SDS011;48626;51.678;5.806;2023-03-01T09:46:24;13.35;;;8.55;;
62572;SDS011;48626;51.678;5.806;2023-03-01T09:48:53;12.88;;;7.80;;
62572;SDS011;48626;51.678;5.806;2023-03-01T09:51:29;14.32;;;8.23;;
62572;SDS011;48626;51.678;5.806;2023-03-01T09:54:03;10.95;;;7.53;;
62572;SDS011;48626;51.678;5.806;2023-03-01T09:56:32;11.02;;;7.03;;
62572;SDS011;48626;51.678;5.806;2023-03-01T09:59:07;9.73;;;6.82;;
62572;SDS011;48626;51.678;5.806;2023-03-01T10:01:55;11.57;;;6.72;;
62572;SDS011;48626;51.678;5.806;2023-03-01T10:04:27;12.98;;;6.55;;
62572;SDS011;48626;51.678;5.806;2023-03-01T10:07:12;8.45;;;5.60;;
62572;SDS011;48626;51.678;5.806;2023-03-01T10:09:54;11.30;;;5.97;;
62572;SDS011;48626;51.678;5.806;2023-03-01T10:12:21;10.13;;;6.57;;
62572;SDS011;48626;51.678;5.806;2023-03-01T10:17:49;11.63;;;6.22;;
62572;SDS011;48626;51.678;5.806;2023-03-01T10:20:42;9.23;;;6.15;;
62572;SDS011;48626;51.678;5.806;2023-03-01T10:23:14;13.75;;;5.97;;
62572;SDS011;48626;51.678;5.806;2023-03-01T10:25:56;10.52;;;6.10;;
62572;SDS011;48626;51.678;5.806;2023-03-01T10:31:32;9.98;;;5.78;;
62572;SDS011;48626;51.678;5.806;2023-03-01T10:34:13;12.50;;;5.97;;
62572;SDS011;48626;51.678;5.806;2023-03-01T10:39:22;7.75;;;5.47;;
62572;SDS011;48626;51.678;5.806;2023-03-01T10:47:13;10.02;;;5.82;;
62572;SDS011;48626;51.678;5.806;2023-03-01T10:50:01;9.30;;;5.65;;
62572;SDS011;48626;51.678;5.806;2023-03-01T10:52:31;9.38;;;5.57;;
62572;SDS011;48626;51.678;5.806;2023-03-01T10:55:22;9.60;;;5.68;;
62572;SDS011;48626;51.678;5.806;2023-03-01T10:58:18;9.80;;;5.95;;
62572;SDS011;48626;51.678;5.806;2023-03-01T11:00:55;10.73;;;5.88;;
62572;SDS011;48626;51.678;5.806;2023-03-01T11:11:06;9.27;;;5.82;;
62572;SDS011;48626;51.678;5.806;2023-03-01T11:13:52;8.82;;;6.07;;
62572;SDS011;48626;51.678;5.806;2023-03-01T11:16:38;8.85;;;5.82;;
62572;SDS011;48626;51.678;5.806;2023-03-01T11:21:38;8.77;;;5.63;;
62572;SDS011;48626;51.678;5.806;2023-03-01T11:24:19;10.77;;;5.68;;
62572;SDS011;48626;51.678;5.806;2023-03-01T11:26:54;9.27;;;5.57;;
62572;SDS011;48626;51.678;5.806;2023-03-01T11:29:32;9.98;;;6.05;;
62572;SDS011;48626;51.678;5.806;2023-03-01T11:32:08;10.25;;;6.78;;
62572;SDS011;48626;51.678;5.806;2023-03-01T11:37:09;10.07;;;6.25;;
62572;SDS011;48626;51.678;5.806;2023-03-01T11:39:53;10.98;;;5.57;;
62572;SDS011;48626;51.678;5.806;2023-03-01T11:45:24;13.07;;;6.38;;
62572;SDS011;48626;51.678;5.806;2023-03-01T11:48:05;9.27;;;5.50;;
62572;SDS011;48626;51.678;5.806;2023-03-01T11:50:42;7.95;;;5.63;;
62572;SDS011;48626;51.678;5.806;2023-03-01T11:53:20;8.27;;;5.43;;
62572;SDS011;48626;51.678;5.806;2023-03-01T12:08:47;8.25;;;5.70;;
62572;SDS011;48626;51.678;5.806;2023-03-01T12:17:07;11.45;;;5.90;;
62572;SDS011;48626;51.678;5.806;2023-03-01T12:35:52;10.07;;;5.85;;
62572;SDS011;48626;51.678;5.806;2023-03-01T12:38:49;8.55;;;5.32;;
62572;SDS011;48626;51.678;5.806;2023-03-01T12:44:11;8.65;;;5.80;;
62572;SDS011;48626;51.678;5.806;2023-03-01T12:50:03;7.93;;;5.70;;
62572;SDS011;48626;51.678;5.806;2023-03-01T12:52:42;9.38;;;5.72;;
62572;SDS011;48626;51.678;5.806;2023-03-01T13:04:02;9.38;;;5.55;;
62572;SDS011;48626;51.678;5.806;2023-03-01T13:06:40;9.45;;;5.78;;
62572;SDS011;48626;51.678;5.806;2023-03-01T13:09:14;10.35;;;5.95;;
62572;SDS011;48626;51.678;5.806;2023-03-01T13:11:41;7.97;;;5.70;;
62572;SDS011;48626;51.678;5.806;2023-03-01T13:16:46;9.73;;;5.70;;
62572;SDS011;48626;51.678;5.806;2023-03-01T13:21:44;13.38;;;6.20;;
62572;SDS011;48626;51.678;5.806;2023-03-01T13:29:32;10.02;;;5.95;;
62572;SDS011;48626;51.678;5.806;2023-03-01T13:32:20;10.48;;;6.03;;
62572;SDS011;48626;51.678;5.806;2023-03-01T13:37:40;9.60;;;6.03;;
62572;SDS011;48626;51.678;5.806;2023-03-01T13:42:47;9.98;;;6.05;;
62572;SDS011;48626;51.678;5.806;2023-03-01T13:47:42;9.40;;;6.13;;
62572;SDS011;48626;51.678;5.806;2023-03-01T13:50:16;11.27;;;6.43;;
62572;SDS011;48626;51.678;5.806;2023-03-01T13:53:03;9.85;;;6.13;;
62572;SDS011;48626;51.678;5.806;2023-03-01T13:55:40;10.23;;;6.05;;
62572;SDS011;48626;51.678;5.806;2023-03-01T14:00:40;8.63;;;6.00;;
62572;SDS011;48626;51.678;5.806;2023-03-01T14:05:57;15.18;;;6.65;;
62572;SDS011;48626;51.678;5.806;2023-03-01T14:08:26;10.52;;;6.20;;
62572;SDS011;48626;51.678;5.806;2023-03-01T14:19:20;7.57;;;5.80;;
62572;SDS011;48626;51.678;5.806;2023-03-01T14:22:06;9.32;;;6.05;;
62572;SDS011;48626;51.678;5.806;2023-03-01T14:24:50;10.07;;;6.50;;
62572;SDS011;48626;51.678;5.806;2023-03-01T14:30:01;11.02;;;6.13;;
62572;SDS011;48626;51.678;5.806;2023-03-01T14:32:30;9.95;;;6.45;;
62572;SDS011;48626;51.678;5.806;2023-03-01T14:34:58;10.82;;;6.53;;
62572;SDS011;48626;51.678;5.806;2023-03-01T14:39:50;11.20;;;7.05;;
62572;SDS011;48626;51.678;5.806;2023-03-01T14:42:17;9.73;;;6.05;;
62572;SDS011;48626;51.678;5.806;2023-03-01T14:44:48;10.30;;;6.63;;
62572;SDS011;48626;51.678;5.806;2023-03-01T14:47:18;11.30;;;6.60;;
62572;SDS011;48626;51.678;5.806;2023-03-01T14:49:54;10.82;;;6.80;;
62572;SDS011;48626;51.678;5.806;2023-03-01T14:52:34;10.57;;;6.65;;
62572;SDS011;48626;51.678;5.806;2023-03-01T14:55:05;12.10;;;6.82;;
62572;SDS011;48626;51.678;5.806;2023-03-01T14:57:43;14.00;;;7.32;;
62572;SDS011;48626;51.678;5.806;2023-03-01T15:00:10;12.70;;;7.85;;
62572;SDS011;48626;51.678;5.806;2023-03-01T15:02:53;12.02;;;6.90;;
62572;SDS011;48626;51.678;5.806;2023-03-01T15:05:30;12.55;;;7.53;;
62572;SDS011;48626;51.678;5.806;2023-03-01T15:07:57;11.50;;;7.10;;
62572;SDS011;48626;51.678;5.806;2023-03-01T15:10:34;14.93;;;6.85;;
62572;SDS011;48626;51.678;5.806;2023-03-01T15:13:11;11.32;;;6.97;;
62572;SDS011;48626;51.678;5.806;2023-03-01T15:15:47;10.50;;;6.50;;
62572;SDS011;48626;51.678;5.806;2023-03-01T15:20:44;15.85;;;6.68;;
62572;SDS011;48626;51.678;5.806;2023-03-01T15:23:20;10.02;;;6.25;;
62572;SDS011;48626;51.678;5.806;2023-03-01T15:25:51;11.48;;;6.25;;
62572;SDS011;48626;51.678;5.806;2023-03-01T15:28:33;8.57;;;5.78;;
62572;SDS011;48626;51.678;5.806;2023-03-01T15:33:50;13.55;;;6.55;;
62572;SDS011;48626;51.678;5.806;2023-03-01T15:39:04;13.88;;;6.47;;
62572;SDS011;48626;51.678;5.806;2023-03-01T15:41:48;11.63;;;6.65;;
62572;SDS011;48626;51.678;5.806;2023-03-01T15:44:15;10.32;;;6.20;;
62572;SDS011;48626;51.678;5.806;2023-03-01T15:46:52;11.13;;;6.72;;
62572;SDS011;48626;51.678;5.806;2023-03-01T15:49:30;12.73;;;6.25;;
62572;SDS011;48626;51.678;5.806;2023-03-01T15:55:02;9.23;;;5.90;;
62572;SDS011;48626;51.678;5.806;2023-03-01T15:57:30;11.98;;;5.60;;
62572;SDS011;48626;51.678;5.806;2023-03-01T15:59:56;11.43;;;6.22;;
62572;SDS011;48626;51.678;5.806;2023-03-01T16:02:22;9.82;;;5.88;;
62572;SDS011;48626;51.678;5.806;2023-03-01T16:04:49;9.23;;;5.90;;
62572;SDS011;48626;51.678;5.806;2023-03-01T16:07:15;10.25;;;6.07;;
62572;SDS011;48626;51.678;5.806;2023-03-01T16:09:41;10.30;;;6.35;;
62572;SDS011;48626;51.678;5.806;2023-03-01T16:12:11;9.25;;;5.97;;
62572;SDS011;48626;51.678;5.806;2023-03-01T16:14:40;10.60;;;6.05;;
62572;SDS011;48626;51.678;5.806;2023-03-01T16:17:05;13.93;;;6.07;;
62572;SDS011;48626;51.678;5.806;2023-03-01T16:19:34;11.35;;;5.95;;
62572;SDS011;48626;51.678;5.806;2023-03-01T16:22:02;10.68;;;6.15;;
62572;SDS011;48626;51.678;5.806;2023-03-01T16:24:28;9.48;;;5.68;;
62572;SDS011;48626;51.678;5.806;2023-03-01T16:26:53;13.30;;;6.15;;
62572;SDS011;48626;51.678;5.806;2023-03-01T16:29:19;8.20;;;5.18;;
62572;SDS011;48626;51.678;5.806;2023-03-01T16:31:45;8.38;;;5.45;;
62572;SDS011;48626;51.678;5.806;2023-03-01T16:34:11;9.05;;;5.88;;
62572;SDS011;48626;51.678;5.806;2023-03-01T16:36:37;9.73;;;5.80;;
62572;SDS011;48626;51.678;5.806;2023-03-01T16:39:03;15.85;;;5.85;;
62572;SDS011;48626;51.678;5.806;2023-03-01T16:41:30;11.63;;;5.80;;
62572;SDS011;48626;51.678;5.806;2023-03-01T16:43:55;10.65;;;5.70;;
62572;SDS011;48626;51.678;5.806;2023-03-01T16:46:22;8.00;;;5.32;;
62572;SDS011;48626;51.678;5.806;2023-03-01T16:48:49;11.07;;;5.72;;
62572;SDS011;48626;51.678;5.806;2023-03-01T16:51:16;9.48;;;5.43;;
62572;SDS011;48626;51.678;5.806;2023-03-01T16:53:41;9.70;;;5.93;;
62572;SDS011;48626;51.678;5.806;2023-03-01T16:56:08;11.68;;;6.03;;
62572;SDS011;48626;51.678;5.806;2023-03-01T16:58:36;9.82;;;5.70;;
62572;SDS011;48626;51.678;5.806;2023-03-01T17:03:44;9.43;;;5.80;;
62572;SDS011;48626;51.678;5.806;2023-03-01T17:06:12;8.35;;;5.43;;
62572;SDS011;48626;51.678;5.806;2023-03-01T17:08:39;10.85;;;6.10;;
62572;SDS011;48626;51.678;5.806;2023-03-01T17:13:36;8.07;;;5.60;;
62572;SDS011;48626;51.678;5.806;2023-03-01T17:16:03;10.73;;;5.80;;
62572;SDS011;48626;51.678;5.806;2023-03-01T17:18:30;8.45;;;5.05;;